sensor_id;sensor_type;location;lat;lon;timestamp;P1;durP1;ratioP1;P2;durP2;ratioP2
4812;SDS011;2420;51.202;8.698;2023-04-15T00:01:21;15.13;;;9.57;;
4812;SDS011;2420;51.202;8.698;2023-04-15T00:03:49;14.50;;;9.55;;
4812;SDS011;2420;51.202;8.698;2023-04-15T00:06:16;18.15;;;10.05;;
4812;SDS011;2420;51.202;8.698;2023-04-15T00:08:43;12.85;;;8.50;;
4812;SDS011;2420;51.202;8.698;2023-04-15T00:11:09;12.57;;;8.38;;
4812;SDS011;2420;51.202;8.698;2023-04-15T00:13:35;13.13;;;8.60;;
4812;SDS011;2420;51.202;8.698;2023-04-15T00:16:00;12.77;;;8.80;;
4812;SDS011;2420;51.202;8.698;2023-04-15T00:18:26;10.95;;;7.75;;
4812;SDS011;2420;51.202;8.698;2023-04-15T00:20:53;12.23;;;7.90;;
4812;SDS011;2420;51.202;8.698;2023-04-15T00:23:19;12.43;;;7.90;;
4812;SDS011;2420;51.202;8.698;2023-04-15T00:25:44;11.63;;;7.82;;
4812;SDS011;2420;51.202;8.698;2023-04-15T00:28:10;14.38;;;7.47;;
4812;SDS011;2420;51.202;8.698;2023-04-15T00:30:35;14.07;;;8.85;;
4812;SDS011;2420;51.202;8.698;2023-04-15T00:33:01;12.75;;;8.23;;
4812;SDS011;2420;51.202;8.698;2023-04-15T00:35:27;17.85;;;9.10;;
4812;SDS011;2420;51.202;8.698;2023-04-15T00:37:53;17.40;;;9.88;;
4812;SDS011;2420;51.202;8.698;2023-04-15T00:40:19;12.02;;;8.27;;
4812;SDS011;2420;51.202;8.698;2023-04-15T00:42:46;13.40;;;8.85;;
4812;SDS011;2420;51.202;8.698;2023-04-15T00:45:11;12.68;;;8.77;;
4812;SDS011;2420;51.202;8.698;2023-04-15T00:47:38;12.60;;;8.23;;
4812;SDS011;2420;51.202;8.698;2023-04-15T00:50:05;11.52;;;8.10;;
4812;SDS011;2420;51.202;8.698;2023-04-15T00:52:31;13.27;;;8.18;;
4812;SDS011;2420;51.202;8.698;2023-04-15T00:54:57;12.73;;;8.30;;
4812;SDS011;2420;51.202;8.698;2023-04-15T00:57:23;12.30;;;8.60;;
4812;SDS011;2420;51.202;8.698;2023-04-15T00:59:51;15.55;;;9.98;;
4812;SDS011;2420;51.202;8.698;2023-04-15T01:02:17;14.88;;;9.18;;
4812;SDS011;2420;51.202;8.698;2023-04-15T01:04:43;13.65;;;8.55;;
4812;SDS011;2420;51.202;8.698;2023-04-15T01:07:09;13.02;;;7.90;;
4812;SDS011;2420;51.202;8.698;2023-04-15T01:09:34;13.77;;;9.18;;
4812;SDS011;2420;51.202;8.698;2023-04-15T01:12:01;12.27;;;7.72;;
4812;SDS011;2420;51.202;8.698;2023-04-15T01:14:28;12.15;;;7.55;;
4812;SDS011;2420;51.202;8.698;2023-04-15T01:16:54;13.45;;;7.43;;
4812;SDS011;2420;51.202;8.698;2023-04-15T01:19:19;11.50;;;7.47;;
4812;SDS011;2420;51.202;8.698;2023-04-15T01:21:45;11.60;;;7.22;;
4812;SDS011;2420;51.202;8.698;2023-04-15T01:24:10;12.45;;;7.65;;
4812;SDS011;2420;51.202;8.698;2023-04-15T01:26:40;11.25;;;6.78;;
4812;SDS011;2420;51.202;8.698;2023-04-15T01:29:06;11.38;;;7.53;;
4812;SDS011;2420;51.202;8.698;2023-04-15T01:31:32;10.68;;;7.25;;
4812;SDS011;2420;51.202;8.698;2023-04-15T01:33:57;12.32;;;7.45;;
4812;SDS011;2420;51.202;8.698;2023-04-15T01:36:23;11.43;;;7.43;;
4812;SDS011;2420;51.202;8.698;2023-04-15T01:38:49;9.85;;;6.20;;
4812;SDS011;2420;51.202;8.698;2023-04-15T01:41:15;13.43;;;7.13;;
4812;SDS011;2420;51.202;8.698;2023-04-15T01:43:41;8.68;;;6.63;;
4812;SDS011;2420;51.202;8.698;2023-04-15T01:46:06;10.90;;;6.85;;
4812;SDS011;2420;51.202;8.698;2023-04-15T01:48:32;8.88;;;6.57;;
4812;SDS011;2420;51.202;8.698;2023-04-15T01:50:58;11.43;;;7.20;;
4812;SDS011;2420;51.202;8.698;2023-04-15T01:53:24;10.27;;;7.22;;
4812;SDS011;2420;51.202;8.698;2023-04-15T01:55:50;9.50;;;6.72;;
4812;SDS011;2420;51.202;8.698;2023-04-15T01:58:16;11.75;;;6.72;;
4812;SDS011;2420;51.202;8.698;2023-04-15T02:00:42;10.07;;;6.60;;
4812;SDS011;2420;51.202;8.698;2023-04-15T02:03:08;10.45;;;6.88;;
4812;SDS011;2420;51.202;8.698;2023-04-15T02:05:34;9.60;;;6.80;;
4812;SDS011;2420;51.202;8.698;2023-04-15T02:07:59;10.85;;;6.80;;
4812;SDS011;2420;51.202;8.698;2023-04-15T02:10:25;10.02;;;6.82;;
4812;SDS011;2420;51.202;8.698;2023-04-15T02:12:51;11.60;;;7.63;;
4812;SDS011;2420;51.202;8.698;2023-04-15T02:15:18;13.65;;;7.90;;
4812;SDS011;2420;51.202;8.698;2023-04-15T02:17:44;13.60;;;8.38;;
4812;SDS011;2420;51.202;8.698;2023-04-15T02:20:14;12.73;;;7.45;;
4812;SDS011;2420;51.202;8.698;2023-04-15T02:22:40;11.85;;;7.28;;
4812;SDS011;2420;51.202;8.698;2023-04-15T02:25:06;11.50;;;6.90;;
4812;SDS011;2420;51.202;8.698;2023-04-15T02:27:32;10.65;;;6.68;;
4812;SDS011;2420;51.202;8.698;2023-04-15T02:29:57;10.88;;;6.45;;
4812;SDS011;2420;51.202;8.698;2023-04-15T02:32:23;11.35;;;6.97;;
4812;SDS011;2420;51.202;8.698;2023-04-15T02:34:49;10.10;;;6.90;;
4812;SDS011;2420;51.202;8.698;2023-04-15T02:37:15;12.90;;;7.40;;
4812;SDS011;2420;51.202;8.698;2023-04-15T02:39:41;11.82;;;7.68;;
4812;SDS011;2420;51.202;8.698;2023-04-15T02:42:06;10.50;;;7.25;;
4812;SDS011;2420;51.202;8.698;2023-04-15T02:44:32;12.38;;;7.65;;
4812;SDS011;2420;51.202;8.698;2023-04-15T02:46:59;11.50;;;7.35;;
4812;SDS011;2420;51.202;8.698;2023-04-15T02:49:24;11.98;;;7.78;;
4812;SDS011;2420;51.202;8.698;2023-04-15T02:51:50;13.48;;;7.53;;
4812;SDS011;2420;51.202;8.698;2023-04-15T02:54:16;11.70;;;7.03;;
4812;SDS011;2420;51.202;8.698;2023-04-15T02:56:42;12.30;;;7.60;;
4812;SDS011;2420;51.202;8.698;2023-04-15T02:59:08;12.13;;;7.40;;
4812;SDS011;2420;51.202;8.698;2023-04-15T03:01:33;11.20;;;7.45;;
4812;SDS011;2420;51.202;8.698;2023-04-15T03:03:59;11.82;;;7.45;;
4812;SDS011;2420;51.202;8.698;2023-04-15T03:06:24;13.10;;;7.50;;
4812;SDS011;2420;51.202;8.698;2023-04-15T03:08:50;14.30;;;7.75;;
4812;SDS011;2420;51.202;8.698;2023-04-15T03:11:15;10.35;;;6.93;;
4812;SDS011;2420;51.202;8.698;2023-04-15T03:13:42;11.82;;;7.53;;
4812;SDS011;2420;51.202;8.698;2023-04-15T03:16:08;13.05;;;7.45;;
4812;SDS011;2420;51.202;8.698;2023-04-15T03:18:34;10.57;;;7.00;;
4812;SDS011;2420;51.202;8.698;2023-04-15T03:21:00;11.82;;;7.40;;
4812;SDS011;2420;51.202;8.698;2023-04-15T03:23:26;13.38;;;8.23;;
4812;SDS011;2420;51.202;8.698;2023-04-15T03:25:51;13.25;;;7.55;;
4812;SDS011;2420;51.202;8.698;2023-04-15T03:28:19;15.15;;;8.10;;
4812;SDS011;2420;51.202;8.698;2023-04-15T03:30:45;12.05;;;7.93;;
4812;SDS011;2420;51.202;8.698;2023-04-15T03:33:11;13.63;;;8.30;;
4812;SDS011;2420;51.202;8.698;2023-04-15T03:35:36;13.65;;;8.27;;
4812;SDS011;2420;51.202;8.698;2023-04-15T03:38:02;17.58;;;9.57;;
4812;SDS011;2420;51.202;8.698;2023-04-15T03:40:27;19.02;;;10.55;;
4812;SDS011;2420;51.202;8.698;2023-04-15T03:42:53;25.63;;;13.48;;
4812;SDS011;2420;51.202;8.698;2023-04-15T03:45:19;27.25;;;14.85;;
4812;SDS011;2420;51.202;8.698;2023-04-15T03:47:44;25.77;;;13.27;;
4812;SDS011;2420;51.202;8.698;2023-04-15T03:50:10;25.08;;;13.10;;
4812;SDS011;2420;51.202;8.698;2023-04-15T03:52:36;25.63;;;13.95;;
4812;SDS011;2420;51.202;8.698;2023-04-15T03:55:02;32.28;;;15.73;;
4812;SDS011;2420;51.202;8.698;2023-04-15T03:57:27;26.67;;;15.68;;
4812;SDS011;2420;51.202;8.698;2023-04-15T03:59:53;21.98;;;11.98;;
4812;SDS011;2420;51.202;8.698;2023-04-15T04:02:19;14.73;;;9.20;;
4812;SDS011;2420;51.202;8.698;2023-04-15T04:04:44;14.45;;;8.32;;
4812;SDS011;2420;51.202;8.698;2023-04-15T04:07:14;13.30;;;8.10;;
4812;SDS011;2420;51.202;8.698;2023-04-15T04:09:40;17.10;;;8.00;;
4812;SDS011;2420;51.202;8.698;2023-04-15T04:12:06;15.25;;;9.02;;
4812;SDS011;2420;51.202;8.698;2023-04-15T04:14:31;14.70;;;9.20;;
4812;SDS011;2420;51.202;8.698;2023-04-15T04:16:57;17.55;;;9.05;;
4812;SDS011;2420;51.202;8.698;2023-04-15T04:19:22;12.52;;;8.13;;
4812;SDS011;2420;51.202;8.698;2023-04-15T04:21:48;16.20;;;8.77;;
4812;SDS011;2420;51.202;8.698;2023-04-15T04:24:13;14.40;;;8.70;;
4812;SDS011;2420;51.202;8.698;2023-04-15T04:26:39;15.93;;;10.73;;
4812;SDS011;2420;51.202;8.698;2023-04-15T04:29:05;16.52;;;10.40;;
4812;SDS011;2420;51.202;8.698;2023-04-15T04:31:31;16.13;;;9.65;;
4812;SDS011;2420;51.202;8.698;2023-04-15T04:33:56;16.95;;;9.15;;
4812;SDS011;2420;51.202;8.698;2023-04-15T04:36:22;14.02;;;8.90;;
4812;SDS011;2420;51.202;8.698;2023-04-15T04:38:47;13.82;;;8.63;;
4812;SDS011;2420;51.202;8.698;2023-04-15T04:41:13;13.80;;;8.65;;
4812;SDS011;2420;51.202;8.698;2023-04-15T04:43:38;13.02;;;8.77;;
4812;SDS011;2420;51.202;8.698;2023-04-15T04:46:04;15.35;;;9.02;;
4812;SDS011;2420;51.202;8.698;2023-04-15T04:48:29;15.18;;;9.35;;
4812;SDS011;2420;51.202;8.698;2023-04-15T04:50:55;16.92;;;8.38;;
4812;SDS011;2420;51.202;8.698;2023-04-15T04:53:21;12.48;;;8.02;;
4812;SDS011;2420;51.202;8.698;2023-04-15T04:55:46;12.52;;;8.10;;
4812;SDS011;2420;51.202;8.698;2023-04-15T04:58:12;11.73;;;7.40;;
4812;SDS011;2420;51.202;8.698;2023-04-15T05:00:37;13.07;;;8.45;;
4812;SDS011;2420;51.202;8.698;2023-04-15T05:03:04;12.30;;;8.30;;
4812;SDS011;2420;51.202;8.698;2023-04-15T05:05:30;12.93;;;7.97;;
4812;SDS011;2420;51.202;8.698;2023-04-15T05:07:56;14.52;;;8.05;;
4812;SDS011;2420;51.202;8.698;2023-04-15T05:10:21;16.40;;;7.53;;
4812;SDS011;2420;51.202;8.698;2023-04-15T05:12:47;11.90;;;7.55;;
4812;SDS011;2420;51.202;8.698;2023-04-15T05:15:13;12.60;;;8.15;;
4812;SDS011;2420;51.202;8.698;2023-04-15T05:17:39;13.13;;;7.95;;
4812;SDS011;2420;51.202;8.698;2023-04-15T05:20:04;12.38;;;8.32;;
4812;SDS011;2420;51.202;8.698;2023-04-15T05:22:30;12.45;;;8.02;;
4812;SDS011;2420;51.202;8.698;2023-04-15T05:24:56;13.13;;;7.90;;
4812;SDS011;2420;51.202;8.698;2023-04-15T05:27:21;13.80;;;8.27;;
4812;SDS011;2420;51.202;8.698;2023-04-15T05:29:48;15.60;;;7.88;;
4812;SDS011;2420;51.202;8.698;2023-04-15T05:32:13;12.73;;;7.50;;
4812;SDS011;2420;51.202;8.698;2023-04-15T05:34:39;11.43;;;7.50;;
4812;SDS011;2420;51.202;8.698;2023-04-15T05:37:04;11.93;;;7.25;;
4812;SDS011;2420;51.202;8.698;2023-04-15T05:39:30;10.40;;;6.93;;
4812;SDS011;2420;51.202;8.698;2023-04-15T05:41:56;10.02;;;6.72;;
4812;SDS011;2420;51.202;8.698;2023-04-15T05:44:22;9.07;;;6.13;;
4812;SDS011;2420;51.202;8.698;2023-04-15T05:46:47;8.88;;;5.32;;
4812;SDS011;2420;51.202;8.698;2023-04-15T05:49:13;10.38;;;5.70;;
4812;SDS011;2420;51.202;8.698;2023-04-15T05:51:38;7.50;;;5.40;;
4812;SDS011;2420;51.202;8.698;2023-04-15T05:54:04;8.68;;;5.47;;
4812;SDS011;2420;51.202;8.698;2023-04-15T05:56:30;7.75;;;5.97;;
4812;SDS011;2420;51.202;8.698;2023-04-15T05:58:56;9.25;;;5.75;;
4812;SDS011;2420;51.202;8.698;2023-04-15T06:01:21;8.82;;;5.90;;
4812;SDS011;2420;51.202;8.698;2023-04-15T06:03:47;10.13;;;6.43;;
4812;SDS011;2420;51.202;8.698;2023-04-15T06:06:13;10.35;;;6.85;;
4812;SDS011;2420;51.202;8.698;2023-04-15T06:08:39;12.57;;;7.22;;
4812;SDS011;2420;51.202;8.698;2023-04-15T06:11:05;13.15;;;7.88;;
4812;SDS011;2420;51.202;8.698;2023-04-15T06:13:31;11.30;;;8.05;;
4812;SDS011;2420;51.202;8.698;2023-04-15T06:15:56;13.50;;;8.00;;
4812;SDS011;2420;51.202;8.698;2023-04-15T06:18:22;12.27;;;8.70;;
4812;SDS011;2420;51.202;8.698;2023-04-15T06:20:47;12.20;;;9.02;;
4812;SDS011;2420;51.202;8.698;2023-04-15T06:23:13;18.05;;;10.65;;
4812;SDS011;2420;51.202;8.698;2023-04-15T06:25:39;14.02;;;9.85;;
4812;SDS011;2420;51.202;8.698;2023-04-15T06:28:05;13.85;;;9.13;;
4812;SDS011;2420;51.202;8.698;2023-04-15T06:30:30;14.65;;;9.75;;
4812;SDS011;2420;51.202;8.698;2023-04-15T06:32:56;13.30;;;8.70;;
4812;SDS011;2420;51.202;8.698;2023-04-15T06:35:22;12.32;;;8.07;;
4812;SDS011;2420;51.202;8.698;2023-04-15T06:37:47;11.25;;;7.85;;
4812;SDS011;2420;51.202;8.698;2023-04-15T06:40:13;10.43;;;7.15;;
4812;SDS011;2420;51.202;8.698;2023-04-15T06:42:38;10.57;;;6.90;;
4812;SDS011;2420;51.202;8.698;2023-04-15T06:45:04;9.57;;;6.55;;
4812;SDS011;2420;51.202;8.698;2023-04-15T06:47:30;10.18;;;7.05;;
4812;SDS011;2420;51.202;8.698;2023-04-15T06:49:56;10.13;;;6.28;;
4812;SDS011;2420;51.202;8.698;2023-04-15T06:52:21;8.70;;;6.10;;
4812;SDS011;2420;51.202;8.698;2023-04-15T06:54:47;9.90;;;6.57;;
4812;SDS011;2420;51.202;8.698;2023-04-15T06:57:12;11.88;;;7.32;;
4812;SDS011;2420;51.202;8.698;2023-04-15T06:59:38;13.55;;;6.68;;
4812;SDS011;2420;51.202;8.698;2023-04-15T07:02:03;9.60;;;6.65;;
4812;SDS011;2420;51.202;8.698;2023-04-15T07:04:29;10.00;;;6.15;;
4812;SDS011;2420;51.202;8.698;2023-04-15T07:06:55;11.98;;;7.68;;
4812;SDS011;2420;51.202;8.698;2023-04-15T07:09:21;12.75;;;8.00;;
4812;SDS011;2420;51.202;8.698;2023-04-15T07:11:47;13.60;;;8.57;;
4812;SDS011;2420;51.202;8.698;2023-04-15T07:14:13;12.82;;;8.27;;
4812;SDS011;2420;51.202;8.698;2023-04-15T07:16:39;11.57;;;7.65;;
4812;SDS011;2420;51.202;8.698;2023-04-15T07:19:04;10.50;;;7.10;;
4812;SDS011;2420;51.202;8.698;2023-04-15T07:21:30;12.75;;;8.10;;
4812;SDS011;2420;51.202;8.698;2023-04-15T07:23:56;11.73;;;7.90;;
4812;SDS011;2420;51.202;8.698;2023-04-15T07:26:22;15.13;;;8.80;;
4812;SDS011;2420;51.202;8.698;2023-04-15T07:28:48;13.60;;;8.43;;
4812;SDS011;2420;51.202;8.698;2023-04-15T07:31:14;15.57;;;8.52;;
4812;SDS011;2420;51.202;8.698;2023-04-15T07:33:40;14.25;;;8.43;;
4812;SDS011;2420;51.202;8.698;2023-04-15T07:36:06;13.93;;;8.65;;
4812;SDS011;2420;51.202;8.698;2023-04-15T07:38:32;12.82;;;8.70;;
4812;SDS011;2420;51.202;8.698;2023-04-15T07:40:57;14.30;;;8.85;;
4812;SDS011;2420;51.202;8.698;2023-04-15T07:43:23;13.80;;;8.35;;
4812;SDS011;2420;51.202;8.698;2023-04-15T07:45:48;14.25;;;9.13;;
4812;SDS011;2420;51.202;8.698;2023-04-15T07:48:14;13.43;;;8.60;;
4812;SDS011;2420;51.202;8.698;2023-04-15T07:50:39;13.60;;;8.65;;
4812;SDS011;2420;51.202;8.698;2023-04-15T07:53:05;13.88;;;8.27;;
4812;SDS011;2420;51.202;8.698;2023-04-15T07:55:31;12.20;;;8.07;;
4812;SDS011;2420;51.202;8.698;2023-04-15T07:57:56;15.20;;;8.85;;
4812;SDS011;2420;51.202;8.698;2023-04-15T08:00:22;14.43;;;9.00;;
4812;SDS011;2420;51.202;8.698;2023-04-15T08:02:48;14.35;;;8.68;;
4812;SDS011;2420;51.202;8.698;2023-04-15T08:05:13;15.43;;;8.85;;
4812;SDS011;2420;51.202;8.698;2023-04-15T08:07:39;15.68;;;8.77;;
4812;SDS011;2420;51.202;8.698;2023-04-15T08:10:05;14.98;;;9.05;;
4812;SDS011;2420;51.202;8.698;2023-04-15T08:12:31;16.35;;;8.48;;
4812;SDS011;2420;51.202;8.698;2023-04-15T08:14:57;16.02;;;9.10;;
4812;SDS011;2420;51.202;8.698;2023-04-15T08:17:23;14.93;;;8.93;;
4812;SDS011;2420;51.202;8.698;2023-04-15T08:19:49;16.85;;;9.23;;
4812;SDS011;2420;51.202;8.698;2023-04-15T08:22:14;16.08;;;9.57;;
4812;SDS011;2420;51.202;8.698;2023-04-15T08:24:40;14.68;;;8.65;;
4812;SDS011;2420;51.202;8.698;2023-04-15T08:27:06;15.18;;;9.20;;
4812;SDS011;2420;51.202;8.698;2023-04-15T08:29:32;14.07;;;8.68;;
4812;SDS011;2420;51.202;8.698;2023-04-15T08:31:58;12.77;;;7.97;;
4812;SDS011;2420;51.202;8.698;2023-04-15T08:34:25;14.90;;;8.70;;
4812;SDS011;2420;51.202;8.698;2023-04-15T08:36:51;11.48;;;7.40;;
4812;SDS011;2420;51.202;8.698;2023-04-15T08:39:17;12.85;;;7.78;;
4812;SDS011;2420;51.202;8.698;2023-04-15T08:41:46;10.95;;;7.00;;
4812;SDS011;2420;51.202;8.698;2023-04-15T08:44:16;13.30;;;7.57;;
4812;SDS011;2420;51.202;8.698;2023-04-15T08:46:42;11.63;;;6.13;;
4812;SDS011;2420;51.202;8.698;2023-04-15T08:49:11;10.43;;;6.35;;
4812;SDS011;2420;51.202;8.698;2023-04-15T08:51:38;10.23;;;6.57;;
4812;SDS011;2420;51.202;8.698;2023-04-15T08:54:04;10.50;;;6.55;;
4812;SDS011;2420;51.202;8.698;2023-04-15T08:56:31;9.90;;;6.47;;
4812;SDS011;2420;51.202;8.698;2023-04-15T08:58:57;10.43;;;6.40;;
4812;SDS011;2420;51.202;8.698;2023-04-15T09:01:24;10.48;;;6.45;;
4812;SDS011;2420;51.202;8.698;2023-04-15T09:03:50;8.55;;;5.80;;
4812;SDS011;2420;51.202;8.698;2023-04-15T09:06:19;9.82;;;6.47;;
4812;SDS011;2420;51.202;8.698;2023-04-15T09:08:45;9.60;;;6.03;;
4812;SDS011;2420;51.202;8.698;2023-04-15T09:11:11;8.82;;;5.65;;
4812;SDS011;2420;51.202;8.698;2023-04-15T09:13:37;9.15;;;5.97;;
4812;SDS011;2420;51.202;8.698;2023-04-15T09:16:04;9.43;;;5.88;;
4812;SDS011;2420;51.202;8.698;2023-04-15T09:18:32;8.50;;;5.45;;
4812;SDS011;2420;51.202;8.698;2023-04-15T09:21:05;10.25;;;6.07;;
4812;SDS011;2420;51.202;8.698;2023-04-15T09:23:39;10.27;;;6.70;;
4812;SDS011;2420;51.202;8.698;2023-04-15T09:26:06;10.35;;;6.35;;
4812;SDS011;2420;51.202;8.698;2023-04-15T09:28:32;8.18;;;5.22;;
4812;SDS011;2420;51.202;8.698;2023-04-15T09:31:04;9.10;;;5.78;;
4812;SDS011;2420;51.202;8.698;2023-04-15T09:33:30;9.25;;;5.40;;
4812;SDS011;2420;51.202;8.698;2023-04-15T09:38:22;9.10;;;6.05;;
4812;SDS011;2420;51.202;8.698;2023-04-15T09:40:48;9.55;;;6.07;;
4812;SDS011;2420;51.202;8.698;2023-04-15T09:43:13;9.77;;;6.28;;
4812;SDS011;2420;51.202;8.698;2023-04-15T09:45:46;9.07;;;6.22;;
4812;SDS011;2420;51.202;8.698;2023-04-15T09:48:20;10.65;;;6.15;;
4812;SDS011;2420;51.202;8.698;2023-04-15T09:50:49;10.38;;;6.22;;
4812;SDS011;2420;51.202;8.698;2023-04-15T09:53:15;9.13;;;6.65;;
4812;SDS011;2420;51.202;8.698;2023-04-15T09:55:49;9.15;;;6.25;;
4812;SDS011;2420;51.202;8.698;2023-04-15T09:58:16;10.52;;;6.55;;
4812;SDS011;2420;51.202;8.698;2023-04-15T10:00:52;9.82;;;6.55;;
4812;SDS011;2420;51.202;8.698;2023-04-15T10:03:20;10.25;;;6.93;;
4812;SDS011;2420;51.202;8.698;2023-04-15T10:05:55;10.38;;;7.03;;
4812;SDS011;2420;51.202;8.698;2023-04-15T10:08:23;9.32;;;6.57;;
4812;SDS011;2420;51.202;8.698;2023-04-15T10:10:50;10.80;;;6.97;;
4812;SDS011;2420;51.202;8.698;2023-04-15T10:13:17;11.25;;;6.72;;
4812;SDS011;2420;51.202;8.698;2023-04-15T10:15:54;12.45;;;7.22;;
4812;SDS011;2420;51.202;8.698;2023-04-15T10:18:20;10.35;;;7.10;;
4812;SDS011;2420;51.202;8.698;2023-04-15T10:20:50;11.98;;;7.30;;
4812;SDS011;2420;51.202;8.698;2023-04-15T10:23:17;9.00;;;6.22;;
4812;SDS011;2420;51.202;8.698;2023-04-15T10:25:45;8.40;;;6.20;;
4812;SDS011;2420;51.202;8.698;2023-04-15T10:28:11;10.25;;;6.25;;
4812;SDS011;2420;51.202;8.698;2023-04-15T10:30:37;10.63;;;6.30;;
4812;SDS011;2420;51.202;8.698;2023-04-15T10:33:03;8.65;;;5.82;;
4812;SDS011;2420;51.202;8.698;2023-04-15T10:35:30;9.57;;;7.05;;
4812;SDS011;2420;51.202;8.698;2023-04-15T10:37:57;9.77;;;6.68;;
4812;SDS011;2420;51.202;8.698;2023-04-15T10:40:30;9.57;;;6.47;;
4812;SDS011;2420;51.202;8.698;2023-04-15T10:42:58;9.65;;;6.43;;
4812;SDS011;2420;51.202;8.698;2023-04-15T10:45:34;11.40;;;7.43;;
4812;SDS011;2420;51.202;8.698;2023-04-15T10:48:01;11.38;;;7.25;;
4812;SDS011;2420;51.202;8.698;2023-04-15T10:50:29;10.05;;;6.57;;
4812;SDS011;2420;51.202;8.698;2023-04-15T10:52:55;9.30;;;5.90;;
4812;SDS011;2420;51.202;8.698;2023-04-15T10:55:22;9.65;;;6.47;;
4812;SDS011;2420;51.202;8.698;2023-04-15T10:57:53;9.65;;;6.70;;
4812;SDS011;2420;51.202;8.698;2023-04-15T11:00:27;10.60;;;6.60;;
4812;SDS011;2420;51.202;8.698;2023-04-15T11:02:54;8.85;;;6.30;;
4812;SDS011;2420;51.202;8.698;2023-04-15T11:08:06;9.52;;;5.93;;
4812;SDS011;2420;51.202;8.698;2023-04-15T11:18:09;7.40;;;5.28;;
4812;SDS011;2420;51.202;8.698;2023-04-15T11:20:35;6.80;;;4.72;;
4812;SDS011;2420;51.202;8.698;2023-04-15T11:23:02;7.05;;;4.65;;
4812;SDS011;2420;51.202;8.698;2023-04-15T11:25:29;5.97;;;4.53;;
4812;SDS011;2420;51.202;8.698;2023-04-15T11:27:56;6.78;;;3.88;;
4812;SDS011;2420;51.202;8.698;2023-04-15T11:30:24;6.03;;;3.72;;
4812;SDS011;2420;51.202;8.698;2023-04-15T11:32:51;6.05;;;3.95;;
4812;SDS011;2420;51.202;8.698;2023-04-15T11:35:19;5.70;;;4.00;;
4812;SDS011;2420;51.202;8.698;2023-04-15T11:37:45;4.45;;;3.33;;
4812;SDS011;2420;51.202;8.698;2023-04-15T11:40:12;5.22;;;3.60;;
4812;SDS011;2420;51.202;8.698;2023-04-15T11:42:39;4.22;;;2.88;;
4812;SDS011;2420;51.202;8.698;2023-04-15T11:45:05;4.10;;;3.08;;
4812;SDS011;2420;51.202;8.698;2023-04-15T11:47:36;4.35;;;2.90;;
4812;SDS011;2420;51.202;8.698;2023-04-15T11:50:18;3.88;;;2.60;;
4812;SDS011;2420;51.202;8.698;2023-04-15T11:52:55;4.22;;;2.95;;
4812;SDS011;2420;51.202;8.698;2023-04-15T11:55:22;3.53;;;2.60;;
4812;SDS011;2420;51.202;8.698;2023-04-15T12:00:32;4.43;;;2.80;;
4812;SDS011;2420;51.202;8.698;2023-04-15T12:03:18;2.75;;;2.10;;
4812;SDS011;2420;51.202;8.698;2023-04-15T12:13:53;2.63;;;2.10;;
4812;SDS011;2420;51.202;8.698;2023-04-15T12:16:21;2.67;;;2.00;;
4812;SDS011;2420;51.202;8.698;2023-04-15T12:18:51;2.60;;;2.08;;
4812;SDS011;2420;51.202;8.698;2023-04-15T12:21:20;3.45;;;2.40;;
4812;SDS011;2420;51.202;8.698;2023-04-15T12:23:47;1.83;;;1.70;;
4812;SDS011;2420;51.202;8.698;2023-04-15T12:26:14;2.30;;;2.00;;
4812;SDS011;2420;51.202;8.698;2023-04-15T12:28:41;2.63;;;2.10;;
4812;SDS011;2420;51.202;8.698;2023-04-15T12:31:07;3.47;;;2.47;;
4812;SDS011;2420;51.202;8.698;2023-04-15T12:33:37;2.15;;;1.83;;
4812;SDS011;2420;51.202;8.698;2023-04-15T12:36:03;2.05;;;1.75;;
4812;SDS011;2420;51.202;8.698;2023-04-15T12:38:29;2.63;;;1.90;;
4812;SDS011;2420;51.202;8.698;2023-04-15T12:40:58;2.60;;;1.85;;
4812;SDS011;2420;51.202;8.698;2023-04-15T12:43:23;2.13;;;1.67;;
4812;SDS011;2420;51.202;8.698;2023-04-15T12:45:49;2.78;;;1.88;;
4812;SDS011;2420;51.202;8.698;2023-04-15T12:48:15;2.03;;;1.70;;
4812;SDS011;2420;51.202;8.698;2023-04-15T12:50:40;2.13;;;1.70;;
4812;SDS011;2420;51.202;8.698;2023-04-15T12:53:06;2.28;;;1.80;;
4812;SDS011;2420;51.202;8.698;2023-04-15T12:55:31;2.45;;;1.83;;
4812;SDS011;2420;51.202;8.698;2023-04-15T12:57:57;2.40;;;1.77;;
4812;SDS011;2420;51.202;8.698;2023-04-15T13:00:22;1.90;;;1.70;;
4812;SDS011;2420;51.202;8.698;2023-04-15T13:02:48;2.05;;;1.80;;
4812;SDS011;2420;51.202;8.698;2023-04-15T13:05:13;2.00;;;1.70;;
4812;SDS011;2420;51.202;8.698;2023-04-15T13:07:40;2.25;;;1.83;;
4812;SDS011;2420;51.202;8.698;2023-04-15T13:10:06;2.55;;;2.03;;
4812;SDS011;2420;51.202;8.698;2023-04-15T13:12:32;2.03;;;1.80;;
4812;SDS011;2420;51.202;8.698;2023-04-15T13:15:00;2.67;;;1.80;;
4812;SDS011;2420;51.202;8.698;2023-04-15T13:17:27;1.98;;;1.50;;
4812;SDS011;2420;51.202;8.698;2023-04-15T13:19:52;1.65;;;1.55;;
4812;SDS011;2420;51.202;8.698;2023-04-15T13:22:18;2.15;;;1.60;;
4812;SDS011;2420;51.202;8.698;2023-04-15T13:24:43;2.05;;;1.63;;
4812;SDS011;2420;51.202;8.698;2023-04-15T13:27:09;1.50;;;1.38;;
4812;SDS011;2420;51.202;8.698;2023-04-15T13:29:35;1.65;;;1.50;;
4812;SDS011;2420;51.202;8.698;2023-04-15T13:32:00;1.40;;;1.30;;
4812;SDS011;2420;51.202;8.698;2023-04-15T13:34:26;1.40;;;1.20;;
4812;SDS011;2420;51.202;8.698;2023-04-15T13:36:51;1.67;;;1.50;;
4812;SDS011;2420;51.202;8.698;2023-04-15T13:39:17;1.90;;;1.20;;
4812;SDS011;2420;51.202;8.698;2023-04-15T13:41:42;1.52;;;1.35;;
4812;SDS011;2420;51.202;8.698;2023-04-15T13:44:08;1.20;;;1.10;;
4812;SDS011;2420;51.202;8.698;2023-04-15T13:46:33;1.30;;;1.20;;
4812;SDS011;2420;51.202;8.698;2023-04-15T13:48:59;1.50;;;1.30;;
4812;SDS011;2420;51.202;8.698;2023-04-15T13:51:24;1.67;;;1.20;;
4812;SDS011;2420;51.202;8.698;2023-04-15T13:53:51;1.40;;;1.20;;
4812;SDS011;2420;51.202;8.698;2023-04-15T13:56:16;1.48;;;1.20;;
4812;SDS011;2420;51.202;8.698;2023-04-15T13:58:42;1.13;;;1.00;;
4812;SDS011;2420;51.202;8.698;2023-04-15T14:01:07;1.27;;;1.10;;
4812;SDS011;2420;51.202;8.698;2023-04-15T14:03:33;1.42;;;1.10;;
4812;SDS011;2420;51.202;8.698;2023-04-15T14:05:59;1.20;;;1.10;;
4812;SDS011;2420;51.202;8.698;2023-04-15T14:08:25;1.33;;;1.23;;
4812;SDS011;2420;51.202;8.698;2023-04-15T14:10:51;1.10;;;1.00;;
4812;SDS011;2420;51.202;8.698;2023-04-15T14:13:16;1.10;;;0.90;;
4812;SDS011;2420;51.202;8.698;2023-04-15T14:15:43;1.10;;;1.00;;
4812;SDS011;2420;51.202;8.698;2023-04-15T14:18:09;1.30;;;1.05;;
4812;SDS011;2420;51.202;8.698;2023-04-15T14:20:34;1.13;;;1.02;;
4812;SDS011;2420;51.202;8.698;2023-04-15T14:23:00;0.93;;;0.80;;
4812;SDS011;2420;51.202;8.698;2023-04-15T14:25:25;1.15;;;0.90;;
4812;SDS011;2420;51.202;8.698;2023-04-15T14:27:51;0.73;;;0.73;;
4812;SDS011;2420;51.202;8.698;2023-04-15T14:30:17;0.90;;;0.90;;
4812;SDS011;2420;51.202;8.698;2023-04-15T14:32:43;1.00;;;0.90;;
4812;SDS011;2420;51.202;8.698;2023-04-15T14:35:08;1.00;;;0.90;;
4812;SDS011;2420;51.202;8.698;2023-04-15T14:37:34;1.10;;;1.00;;
4812;SDS011;2420;51.202;8.698;2023-04-15T14:39:59;0.85;;;0.82;;
4812;SDS011;2420;51.202;8.698;2023-04-15T14:42:25;1.00;;;0.90;;
4812;SDS011;2420;51.202;8.698;2023-04-15T14:44:50;1.38;;;1.20;;
4812;SDS011;2420;51.202;8.698;2023-04-15T14:47:16;0.90;;;0.90;;
4812;SDS011;2420;51.202;8.698;2023-04-15T14:49:42;1.00;;;0.90;;
4812;SDS011;2420;51.202;8.698;2023-04-15T14:52:08;1.33;;;0.98;;
4812;SDS011;2420;51.202;8.698;2023-04-15T14:54:33;0.90;;;0.90;;
4812;SDS011;2420;51.202;8.698;2023-04-15T14:56:59;0.80;;;0.80;;
4812;SDS011;2420;51.202;8.698;2023-04-15T14:59:25;0.93;;;0.90;;
4812;SDS011;2420;51.202;8.698;2023-04-15T15:01:51;1.17;;;1.00;;
4812;SDS011;2420;51.202;8.698;2023-04-15T15:04:17;1.00;;;0.90;;
4812;SDS011;2420;51.202;8.698;2023-04-15T15:06:42;1.10;;;1.00;;
4812;SDS011;2420;51.202;8.698;2023-04-15T15:09:08;1.25;;;1.15;;
4812;SDS011;2420;51.202;8.698;2023-04-15T15:11:33;1.60;;;1.30;;
4812;SDS011;2420;51.202;8.698;2023-04-15T15:13:59;1.42;;;1.10;;
4812;SDS011;2420;51.202;8.698;2023-04-15T15:16:24;1.05;;;0.98;;
4812;SDS011;2420;51.202;8.698;2023-04-15T15:18:51;1.05;;;0.95;;
4812;SDS011;2420;51.202;8.698;2023-04-15T15:21:17;1.20;;;1.10;;
4812;SDS011;2420;51.202;8.698;2023-04-15T15:23:43;1.10;;;1.00;;